createdAt,value
2019-04-24T00:01:37.496Z,10.77
2019-04-24T00:04:19.462Z,10.80
2019-04-24T00:06:54.043Z,10.50
2019-04-24T00:09:18.283Z,10.80
2019-04-24T00:11:53.749Z,11.17
2019-04-24T00:14:50.334Z,10.43
2019-04-24T00:17:13.938Z,11.20
2019-04-24T00:19:45.441Z,10.67
2019-04-24T00:24:50.559Z,10.77
2019-04-24T00:27:19.722Z,10.67
2019-04-24T00:29:49.530Z,10.93
2019-04-24T00:32:26.435Z,11.50
2019-04-24T00:34:52.828Z,9.90
2019-04-24T00:37:37.524Z,11.00
2019-04-24T00:44:55.944Z,10.27
2019-04-24T00:47:30.906Z,10.37
2019-04-24T00:49:51.832Z,10.57
2019-04-24T00:52:31.417Z,10.57
2019-04-24T00:54:58.215Z,11.50
2019-04-24T00:59:59.083Z,11.50
2019-04-24T01:02:55.893Z,10.47
2019-04-24T01:05:32.733Z,12.43
2019-04-24T01:10:47.768Z,10.30
2019-04-24T01:13:09.234Z,11.13
2019-04-24T01:16:13.037Z,11.60
2019-04-24T01:18:14.534Z,10.90
2019-04-24T01:21:00.687Z,10.70
2019-04-24T01:23:16.852Z,11.13
2019-04-24T01:28:13.803Z,12.10
2019-04-24T01:33:26.546Z,11.10
2019-04-24T01:36:09.342Z,10.43
2019-04-24T01:38:37.554Z,10.47
2019-04-24T01:41:15.312Z,11.13
2019-04-24T01:46:23.500Z,10.87
2019-04-24T01:49:00.769Z,10.33
2019-04-24T01:51:23.184Z,9.97
2019-04-24T01:54:07.004Z,12.40
2019-04-24T01:56:20.207Z,10.07
2019-04-24T02:01:21.277Z,9.77
2019-04-24T02:03:53.134Z,12.23
2019-04-24T02:06:22.261Z,9.27
2019-04-24T02:09:03.699Z,11.80
2019-04-24T02:14:24.459Z,10.80
2019-04-24T02:16:46.825Z,10.53
2019-04-24T02:19:21.013Z,10.50
2019-04-24T02:24:23.893Z,10.70
2019-04-24T02:26:45.937Z,11.20
2019-04-24T02:29:30.812Z,10.13
2019-04-24T02:32:29.465Z,11.20
2019-04-24T02:34:31.570Z,10.20
2019-04-24T02:37:23.991Z,11.10
2019-04-24T02:47:48.431Z,11.97
2019-04-24T02:50:06.552Z,11.10
2019-04-24T02:58:01.913Z,10.80
2019-04-24T03:05:33.075Z,10.30
2019-04-24T03:08:15.978Z,9.70
2019-04-24T03:15:48.885Z,11.93
2019-04-24T03:18:31.234Z,10.50
2019-04-24T03:23:43.438Z,9.50
2019-04-24T03:26:38.932Z,11.00
2019-04-24T03:28:32.723Z,10.37
2019-04-24T03:33:42.798Z,10.63
2019-04-24T03:46:06.775Z,12.17
2019-04-24T03:54:11.107Z,11.03
2019-04-24T04:12:16.854Z,10.53
2019-04-24T04:17:07.473Z,10.40
2019-04-24T04:27:31.402Z,10.80
2019-04-24T04:32:58.808Z,10.30
2019-04-24T04:35:47.612Z,10.63
2019-04-24T04:43:05.607Z,12.60
2019-04-24T04:46:07.939Z,10.50
2019-04-24T04:48:13.781Z,11.27
2019-04-24T04:53:37.603Z,12.67
2019-04-24T05:07:06.952Z,10.20
2019-04-24T05:09:33.026Z,9.50
2019-04-24T05:11:50.939Z,10.00
2019-04-24T05:14:34.949Z,9.43
2019-04-24T05:19:23.195Z,10.67
2019-04-24T05:24:21.131Z,10.30
2019-04-24T05:39:59.086Z,9.23
2019-04-24T05:42:53.633Z,9.77
2019-04-24T05:45:11.042Z,10.40
2019-04-24T05:55:36.625Z,10.70
2019-04-24T05:58:02.957Z,10.27
2019-04-24T06:00:42.941Z,9.50
2019-04-24T06:03:06.892Z,10.57
2019-04-24T06:08:20.947Z,10.03
2019-04-24T06:13:36.125Z,12.37
2019-04-24T06:19:02.817Z,11.17
2019-04-24T06:26:20.862Z,10.30
2019-04-24T06:39:26.016Z,12.07
2019-04-24T06:49:39.327Z,10.13
2019-04-24T06:52:52.953Z,14.57
2019-04-24T06:55:36.472Z,11.13
2019-04-24T06:57:51.967Z,11.20
2019-04-24T07:02:50.945Z,10.30
2019-04-24T07:07:52.391Z,12.20
2019-04-24T07:13:49.917Z,11.50
2019-04-24T07:16:16.687Z,10.03
2019-04-24T07:18:48.441Z,10.37
2019-04-24T07:21:12.197Z,9.73
2019-04-24T07:23:57.735Z,10.00
2019-04-24T07:26:16.503Z,13.10
2019-04-24T07:36:36.887Z,12.33
2019-04-24T07:38:53.784Z,10.70
2019-04-24T07:49:14.489Z,11.00
2019-04-24T07:51:53.384Z,12.27
2019-04-24T08:02:08.805Z,10.60
2019-04-24T08:04:50.103Z,11.60
2019-04-24T08:12:18.332Z,14.57
2019-04-24T08:15:08.647Z,10.90
2019-04-24T08:17:31.348Z,9.63
2019-04-24T08:22:39.621Z,11.37
2019-04-24T08:30:00.536Z,11.17
2019-04-24T08:32:33.270Z,11.50
2019-04-24T08:34:51.660Z,11.53
2019-04-24T08:50:33.779Z,11.17
2019-04-24T08:55:32.876Z,11.77
2019-04-24T08:58:08.590Z,10.47
2019-04-24T09:00:34.714Z,10.80
2019-04-24T09:03:22.938Z,11.27
2019-04-24T09:05:52.235Z,10.00
2019-04-24T09:11:02.380Z,11.27
2019-04-24T09:13:36.535Z,11.90
2019-04-24T09:18:40.412Z,11.57
2019-04-24T09:21:02.388Z,11.43
2019-04-24T09:24:19.137Z,12.10
2019-04-24T09:29:02.826Z,10.93
2019-04-24T09:31:36.163Z,11.40
2019-04-24T09:33:59.443Z,11.83
2019-04-24T09:36:54.635Z,11.60
2019-04-24T09:39:33.601Z,12.30
2019-04-24T09:44:35.013Z,12.97
2019-04-24T09:47:04.609Z,12.27
2019-04-24T09:49:43.394Z,12.67
2019-04-24T09:54:56.717Z,11.43
2019-04-24T10:02:31.940Z,11.93
2019-04-24T10:05:26.256Z,11.33
2019-04-24T10:07:50.793Z,13.40
2019-04-24T10:10:17.237Z,11.77
2019-04-24T10:15:26.922Z,12.20
2019-04-24T10:17:55.042Z,11.10
2019-04-24T10:20:23.931Z,11.77
2019-04-24T10:23:27.953Z,12.20
2019-04-24T10:25:33.305Z,12.23
2019-04-24T10:28:30.540Z,12.83
2019-04-24T10:34:03.709Z,13.53
2019-04-24T10:36:51.491Z,12.90
2019-04-24T10:39:08.641Z,12.90
2019-04-24T10:41:37.231Z,12.57
2019-04-24T10:44:26.969Z,13.07
2019-04-24T10:47:21.359Z,12.87
2019-04-24T10:49:49.314Z,13.27
2019-04-24T10:54:38.644Z,13.60
2019-04-24T10:57:04.941Z,13.70
2019-04-24T11:05:04.429Z,13.33
2019-04-24T11:07:48.275Z,12.33
2019-04-24T11:18:02.743Z,12.10
2019-04-24T11:20:45.670Z,12.53
2019-04-24T11:23:21.195Z,11.50
2019-04-24T11:26:10.719Z,11.03
2019-04-24T11:28:44.547Z,11.13
2019-04-24T11:31:11.314Z,10.90
2019-04-24T11:34:09.695Z,12.93
2019-04-24T11:36:29.791Z,11.10
2019-04-24T11:39:10.846Z,10.30
2019-04-24T11:41:35.263Z,10.50
2019-04-24T11:49:47.329Z,10.53
2019-04-24T11:52:14.611Z,10.50
2019-04-24T11:54:59.240Z,10.20
2019-04-24T11:57:50.682Z,10.87
2019-04-24T11:59:31.891Z,11.47
2019-04-24T12:02:32.192Z,10.80
2019-04-24T12:05:04.710Z,11.03
2019-04-24T12:07:37.746Z,10.13
2019-04-24T12:12:45.175Z,10.43
2019-04-24T12:15:09.214Z,10.03
2019-04-24T12:20:19.031Z,10.10
2019-04-24T12:22:51.477Z,10.10
2019-04-24T12:25:38.112Z,10.77
2019-04-24T12:28:02.352Z,10.43
2019-04-24T12:30:40.503Z,10.17
2019-04-24T12:33:02.727Z,10.63
2019-04-24T12:35:34.879Z,11.00
2019-04-24T12:38:29.940Z,11.27
2019-04-24T12:43:45.499Z,10.77
2019-04-24T12:46:09.524Z,10.63
2019-04-24T12:48:43.827Z,9.90
2019-04-24T12:51:04.439Z,9.87
2019-04-24T12:53:51.813Z,10.40
2019-04-24T12:56:31.903Z,9.97
2019-04-24T12:59:19.659Z,10.10
2019-04-24T13:01:51.137Z,9.80
2019-04-24T13:04:47.854Z,9.70
2019-04-24T13:06:57.966Z,9.93
2019-04-24T13:09:30.390Z,10.03
2019-04-24T13:15:03.926Z,9.40
2019-04-24T13:19:34.933Z,9.90
2019-04-24T13:22:12.773Z,10.30
2019-04-24T13:25:09.476Z,10.50
2019-04-24T13:30:58.996Z,10.10
2019-04-24T13:35:54.584Z,9.97
2019-04-24T13:38:34.133Z,10.43
2019-04-24T13:41:00.180Z,9.83
2019-04-24T13:43:39.581Z,10.73
2019-04-24T13:48:44.421Z,10.93
2019-04-24T13:50:56.908Z,11.40
2019-04-24T13:53:59.697Z,10.30
2019-04-24T13:55:58.247Z,10.80
2019-04-24T13:58:37.160Z,10.60
2019-04-24T14:04:06.714Z,10.10
2019-04-24T14:09:11.135Z,10.40
2019-04-24T14:14:07.729Z,8.80
2019-04-24T14:16:28.208Z,8.37
2019-04-24T14:19:32.592Z,8.67
2019-04-24T14:24:19.131Z,8.60
2019-04-24T14:26:56.199Z,9.07
2019-04-24T14:29:21.484Z,8.80
2019-04-24T14:32:06.651Z,10.20
2019-04-24T14:36:57.635Z,9.17
2019-04-24T14:42:06.933Z,9.97
2019-04-24T14:47:04.078Z,9.40
2019-04-24T14:49:37.351Z,9.30
2019-04-24T14:52:08.747Z,8.80
2019-04-24T14:54:29.844Z,9.53
2019-04-24T14:57:09.910Z,9.60
2019-04-24T15:02:11.315Z,9.53
2019-04-24T15:04:39.271Z,9.20
2019-04-24T15:07:25.935Z,9.60
2019-04-24T15:10:07.983Z,9.90
2019-04-24T15:12:54.795Z,9.70
2019-04-24T15:15:15.051Z,9.83
2019-04-24T15:20:13.644Z,9.10
2019-04-24T15:22:45.196Z,9.23
2019-04-24T15:27:52.726Z,10.27
2019-04-24T15:30:19.901Z,9.50
2019-04-24T15:32:48.951Z,10.23
2019-04-24T15:35:22.081Z,10.80
2019-04-24T15:37:57.640Z,12.10
2019-04-24T15:43:01.983Z,11.60
2019-04-24T15:45:30.422Z,11.37
2019-04-24T15:48:05.672Z,11.33
2019-04-24T15:50:37.998Z,11.10
2019-04-24T15:52:28.485Z,11.70
2019-04-24T15:54:58.477Z,11.90
2019-04-24T15:57:29.622Z,11.57
2019-04-24T16:00:29.515Z,12.07
2019-04-24T16:05:01.951Z,11.80
2019-04-24T16:07:48.243Z,11.40
2019-04-24T16:10:19.431Z,11.50
2019-04-24T16:12:48.954Z,11.80
2019-04-24T16:15:58.867Z,11.17
2019-04-24T16:18:24.075Z,11.53
2019-04-24T16:21:04.254Z,11.07
2019-04-24T16:24:12.584Z,11.50
2019-04-24T16:26:06.270Z,11.90
2019-04-24T16:28:34.278Z,11.33
2019-04-24T16:30:57.469Z,13.20
2019-04-24T16:36:27.825Z,12.73
2019-04-24T16:41:10.103Z,12.70
2019-04-24T16:43:36.521Z,12.90
2019-04-24T16:48:41.145Z,12.10
2019-04-24T16:56:35.006Z,11.53
2019-04-24T16:58:55.078Z,11.63
2019-04-24T17:01:37.756Z,13.07
2019-04-24T17:09:07.001Z,11.93
2019-04-24T17:11:39.102Z,11.30
2019-04-24T17:14:17.052Z,11.70
2019-04-24T17:17:30.007Z,12.27
2019-04-24T17:19:46.283Z,11.50
2019-04-24T17:22:02.558Z,12.37
2019-04-24T17:24:35.735Z,11.70
2019-04-24T17:36:44.693Z,11.60
2019-04-24T17:39:19.040Z,11.70
2019-04-24T17:41:55.359Z,11.10
2019-04-24T17:44:58.070Z,11.60
2019-04-24T17:50:04.897Z,11.83
2019-04-24T17:52:40.254Z,11.50
2019-04-24T17:54:52.218Z,11.73
2019-04-24T17:59:30.178Z,11.83
2019-04-24T18:02:02.081Z,11.90
2019-04-24T18:04:31.749Z,12.00
2019-04-24T18:07:02.205Z,12.10
2019-04-24T18:09:32.751Z,13.13
2019-04-24T18:12:03.375Z,22.00
2019-04-24T18:14:33.396Z,15.63
2019-04-24T18:17:02.949Z,17.60
2019-04-24T18:19:32.523Z,17.33
2019-04-24T18:22:03.888Z,16.03
2019-04-24T18:24:52.018Z,14.73
2019-04-24T18:27:29.297Z,14.50
2019-04-24T18:29:58.907Z,15.50
2019-04-24T18:32:31.487Z,14.07
2019-04-24T18:35:01.048Z,14.50
2019-04-24T18:37:50.188Z,14.00
2019-04-24T18:40:21.429Z,15.23
2019-04-24T18:42:52.752Z,14.57
2019-04-24T18:45:22.804Z,14.27
2019-04-24T18:47:53.291Z,14.47
2019-04-24T18:50:23.156Z,14.40
2019-04-24T18:52:52.831Z,16.80
2019-04-24T18:55:22.628Z,15.30
2019-04-24T18:57:52.401Z,13.63
2019-04-24T19:00:22.013Z,14.33
2019-04-24T19:02:51.716Z,14.30
2019-04-24T19:05:23.250Z,13.70
2019-04-24T19:07:52.796Z,13.43
2019-04-24T19:10:22.285Z,13.17
2019-04-24T19:12:52.061Z,13.50
2019-04-24T19:15:22.002Z,13.40
2019-04-24T19:17:55.120Z,13.00
2019-04-24T19:20:23.279Z,13.40
2019-04-24T19:23:02.230Z,12.70
2019-04-24T19:25:24.243Z,13.50
2019-04-24T19:27:53.761Z,13.10
2019-04-24T19:30:24.146Z,13.13
2019-04-24T19:32:53.588Z,13.27
2019-04-24T19:35:23.188Z,12.97
2019-04-24T19:37:52.752Z,12.77
2019-04-24T19:40:35.630Z,12.70
2019-04-24T19:42:54.022Z,12.70
2019-04-24T19:45:25.363Z,12.63
2019-04-24T19:47:55.056Z,13.30
2019-04-24T19:50:24.488Z,12.60
2019-04-24T19:52:54.393Z,12.70
2019-04-24T19:55:24.303Z,13.30
2019-04-24T19:58:13.576Z,12.80
2019-04-24T20:00:44.041Z,12.67
2019-04-24T20:03:14.351Z,12.97
2019-04-24T20:05:44.772Z,12.43
2019-04-24T20:08:15.021Z,13.30
2019-04-24T20:10:46.308Z,12.57
2019-04-24T20:13:16.169Z,12.40
2019-04-24T20:15:45.609Z,12.37
2019-04-24T20:18:15.121Z,12.50
2019-04-24T20:20:44.740Z,12.17
2019-04-24T20:23:26.461Z,11.40
2019-04-24T20:25:45.473Z,12.90
2019-04-24T20:28:15.522Z,11.77
2019-04-24T20:30:45.305Z,12.07
2019-04-24T20:33:14.738Z,12.00
2019-04-24T20:35:44.341Z,12.20
2019-04-24T20:38:14.607Z,11.47
2019-04-24T20:40:45.037Z,11.73
2019-04-24T20:43:16.066Z,12.07
2019-04-24T20:45:45.786Z,12.17
2019-04-24T20:48:16.604Z,11.80
2019-04-24T20:50:46.847Z,11.37
2019-04-24T20:53:16.800Z,12.40
2019-04-24T20:55:46.694Z,12.97
2019-04-24T20:58:18.048Z,11.50
2019-04-24T21:00:47.671Z,11.53
2019-04-24T21:03:17.840Z,12.00
2019-04-24T21:05:55.127Z,11.27
2019-04-24T21:08:51.223Z,11.33
2019-04-24T21:11:20.706Z,11.37
2019-04-24T21:13:51.491Z,11.90
2019-04-24T21:16:22.807Z,11.33
2019-04-24T21:18:52.407Z,11.40
2019-04-24T21:21:23.446Z,11.43
2019-04-24T21:23:56.365Z,11.23
2019-04-24T21:26:26.430Z,11.67
2019-04-24T21:28:56.441Z,11.20
2019-04-24T21:31:26.302Z,11.63
2019-04-24T21:33:58.200Z,10.93
2019-04-24T21:36:27.785Z,12.23
2019-04-24T21:38:57.679Z,11.37
2019-04-24T21:41:47.020Z,12.00
2019-04-24T21:44:16.838Z,11.53
2019-04-24T21:46:46.364Z,12.70
2019-04-24T21:49:16.261Z,11.60
2019-04-24T21:51:45.849Z,12.10
2019-04-24T21:54:16.631Z,12.07
2019-04-24T21:57:06.270Z,11.27
2019-04-24T21:59:35.785Z,11.17
2019-04-24T22:02:08.110Z,11.63
2019-04-24T22:05:04.225Z,11.27
2019-04-24T22:07:37.012Z,12.17
2019-04-24T22:10:08.046Z,12.00
2019-04-24T22:12:37.800Z,12.30
2019-04-24T22:15:26.817Z,11.77
2019-04-24T22:17:56.529Z,11.80
2019-04-24T22:20:36.900Z,11.63
2019-04-24T22:23:18.612Z,11.37
2019-04-24T22:25:49.845Z,11.50
2019-04-24T22:28:19.429Z,11.07
2019-04-24T22:30:50.983Z,11.57
2019-04-24T22:33:21.044Z,11.10
2019-04-24T22:35:52.132Z,10.57
2019-04-24T22:38:23.388Z,10.73
2019-04-24T22:40:55.010Z,11.47
2019-04-24T22:43:43.979Z,12.00
2019-04-24T22:46:14.208Z,11.70
2019-04-24T22:48:43.732Z,11.13
2019-04-24T22:51:13.540Z,11.87
2019-04-24T22:53:43.071Z,11.17
2019-04-24T22:56:13.047Z,11.50
2019-04-24T22:58:43.022Z,10.83
2019-04-24T23:01:32.527Z,10.67
2019-04-24T23:04:03.157Z,11.50
2019-04-24T23:06:33.622Z,10.60
2019-04-24T23:09:08.416Z,10.50
2019-04-24T23:11:38.087Z,11.07
2019-04-24T23:14:07.842Z,11.07
2019-04-24T23:16:37.425Z,11.33
2019-04-24T23:19:07.271Z,10.93
2019-04-24T23:21:43.499Z,12.00
2019-04-24T23:24:40.800Z,12.07
2019-04-24T23:27:11.808Z,12.03
2019-04-24T23:29:43.854Z,11.53
2019-04-24T23:32:31.449Z,11.80
2019-04-24T23:35:01.169Z,11.00
2019-04-24T23:37:30.759Z,11.17
2019-04-24T23:40:00.272Z,10.73
2019-04-24T23:42:30.204Z,10.30
2019-04-24T23:45:02.415Z,11.13
2019-04-24T23:47:32.917Z,10.80
2019-04-24T23:50:02.525Z,10.37
2019-04-24T23:52:32.035Z,11.40
2019-04-24T23:55:06.608Z,10.23
2019-04-24T23:57:32.689Z,10.67
